createdAt,value
2019-03-12T00:00:04.501Z,76.81
2019-03-12T00:01:04.461Z,76.61
2019-03-12T00:02:04.449Z,77.75
2019-03-12T00:03:04.442Z,77.75
2019-03-12T00:04:04.430Z,77.85
2019-03-12T00:05:04.441Z,76.61
2019-03-12T00:06:04.410Z,76.61
2019-03-12T00:07:04.395Z,76.61
2019-03-12T00:08:04.384Z,76.50
2019-03-12T00:09:04.375Z,76.50
2019-03-12T00:10:04.391Z,76.50
2019-03-12T00:11:04.350Z,76.50
2019-03-12T00:12:04.340Z,76.40
2019-03-12T00:13:04.329Z,76.40
2019-03-12T00:14:04.318Z,76.61
2019-03-12T00:15:04.333Z,76.71
2019-03-12T00:16:04.299Z,76.71
2019-03-12T00:17:04.284Z,76.61
2019-03-12T00:18:04.277Z,76.61
2019-03-12T00:19:04.264Z,76.43
2019-03-12T00:20:04.276Z,76.54
2019-03-12T00:21:04.242Z,77.06
2019-03-12T00:22:04.233Z,77.26
2019-03-12T00:23:04.217Z,76.75
2019-03-12T00:24:04.207Z,76.85
2019-03-12T00:25:04.255Z,76.95
2019-03-12T00:26:04.185Z,77.02
2019-03-12T00:27:04.173Z,76.71
2019-03-12T00:28:04.161Z,76.54
2019-03-12T00:29:04.159Z,76.50
2019-03-12T00:30:04.165Z,76.75
2019-03-12T00:31:04.130Z,76.64
2019-03-12T00:32:04.116Z,76.64
2019-03-12T00:33:04.104Z,77.06
2019-03-12T00:34:04.092Z,77.64
2019-03-12T00:35:04.086Z,77.64
2019-03-12T00:36:04.098Z,77.78
2019-03-12T00:37:04.061Z,76.64
2019-03-12T00:38:04.049Z,75.98
2019-03-12T00:39:04.035Z,76.64
2019-03-12T00:40:04.032Z,76.33
2019-03-12T00:41:04.040Z,76.64
2019-03-12T00:42:04.001Z,76.75
2019-03-12T00:43:03.991Z,76.95
2019-03-12T00:44:03.979Z,76.12
2019-03-12T00:45:03.970Z,76.43
2019-03-12T00:46:03.985Z,76.12
2019-03-12T00:47:03.946Z,75.92
2019-03-12T00:48:03.935Z,76.09
2019-03-12T00:49:03.924Z,76.29
2019-03-12T00:50:03.912Z,75.81
2019-03-12T00:51:03.930Z,76.12
2019-03-12T00:52:03.893Z,76.12
2019-03-12T00:53:03.881Z,75.78
2019-03-12T00:54:03.869Z,76.02
2019-03-12T00:55:03.859Z,76.12
2019-03-12T00:56:03.871Z,76.12
2019-03-12T00:57:03.839Z,76.23
2019-03-12T00:58:03.825Z,75.71
2019-03-12T00:59:03.814Z,75.46
2019-03-12T01:00:03.801Z,75.71
2019-03-12T01:01:03.824Z,76.02
2019-03-12T01:02:03.780Z,75.71
2019-03-12T01:03:03.769Z,75.92
2019-03-12T01:04:03.754Z,76.23
2019-03-12T01:05:03.746Z,76.02
2019-03-12T01:06:03.758Z,77.12
2019-03-12T01:07:03.722Z,77.58
2019-03-12T01:08:03.713Z,78.09
2019-03-12T01:09:03.700Z,76.12
2019-03-12T01:10:03.687Z,76.12
2019-03-12T01:11:03.703Z,75.71
2019-03-12T01:12:03.671Z,76.23
2019-03-12T01:13:03.653Z,76.02
2019-03-12T01:14:03.643Z,75.92
2019-03-12T01:15:03.631Z,76.23
2019-03-12T01:16:03.647Z,76.16
2019-03-12T01:17:03.610Z,75.81
2019-03-12T01:18:03.601Z,75.81
2019-03-12T01:19:03.587Z,75.81
2019-03-12T01:20:03.575Z,76.06
2019-03-12T01:21:03.593Z,76.23
2019-03-12T01:22:03.553Z,76.23
2019-03-12T01:23:03.543Z,75.50
2019-03-12T01:24:03.530Z,76.26
2019-03-12T01:25:03.519Z,76.16
2019-03-12T01:26:03.538Z,76.23
2019-03-12T01:27:03.501Z,75.64
2019-03-12T01:28:03.489Z,76.16
2019-03-12T01:29:03.474Z,75.85
2019-03-12T01:30:03.466Z,75.85
2019-03-12T01:31:03.456Z,74.91
2019-03-12T01:32:03.466Z,76.26
2019-03-12T01:33:03.428Z,75.95
2019-03-12T01:34:03.517Z,75.95
2019-03-12T01:35:03.409Z,76.26
2019-03-12T01:36:03.398Z,76.12
2019-03-12T01:37:03.414Z,75.95
2019-03-12T01:38:03.381Z,75.85
2019-03-12T01:39:03.374Z,76.16
2019-03-12T01:40:03.352Z,75.64
2019-03-12T01:41:03.342Z,75.64
2019-03-12T01:42:03.352Z,75.95
2019-03-12T01:43:03.319Z,75.85
2019-03-12T01:44:03.306Z,76.47
2019-03-12T01:45:03.298Z,75.95
2019-03-12T01:46:03.283Z,75.85
2019-03-12T01:47:03.302Z,75.74
2019-03-12T01:48:03.268Z,76.06
2019-03-12T01:49:03.343Z,76.06
2019-03-12T01:50:03.242Z,74.91
2019-03-12T01:51:03.235Z,75.43
2019-03-12T01:52:03.274Z,76.12
2019-03-12T01:53:03.204Z,75.95
2019-03-12T01:54:03.193Z,75.12
2019-03-12T01:55:03.185Z,76.16
2019-03-12T01:56:03.173Z,76.16
2019-03-12T01:57:03.189Z,76.06
2019-03-12T01:58:03.148Z,75.95
2019-03-12T01:59:03.140Z,75.12
2019-03-12T02:00:03.126Z,76.37
2019-03-12T02:01:03.117Z,76.16
2019-03-12T02:02:03.128Z,77.82
2019-03-12T02:03:03.100Z,77.64
2019-03-12T02:04:03.084Z,76.37
2019-03-12T02:05:03.071Z,75.67
2019-03-12T02:06:03.059Z,75.88
2019-03-12T02:07:03.075Z,75.88
2019-03-12T02:08:03.037Z,75.15
2019-03-12T02:09:03.026Z,76.50
2019-03-12T02:10:03.014Z,76.50
2019-03-12T02:11:03.006Z,76.40
2019-03-12T02:12:03.018Z,76.50
2019-03-12T02:13:02.980Z,76.61
2019-03-12T02:14:02.969Z,76.95
2019-03-12T02:15:02.959Z,77.12
2019-03-12T02:16:02.947Z,77.95
2019-03-12T02:17:02.960Z,77.75
2019-03-12T02:18:02.925Z,77.78
2019-03-12T02:19:02.913Z,77.78
2019-03-12T02:20:02.907Z,77.78
2019-03-12T02:21:02.894Z,77.89
2019-03-12T02:22:02.880Z,77.78
2019-03-12T02:23:02.892Z,78.13
2019-03-12T02:24:02.856Z,78.34
2019-03-12T02:25:02.844Z,78.55
2019-03-12T02:26:02.833Z,79.65
2019-03-12T02:27:02.830Z,78.96
2019-03-12T02:28:02.839Z,79.27
2019-03-12T02:29:02.801Z,79.44
2019-03-12T02:30:02.790Z,79.55
2019-03-12T02:31:02.785Z,78.44
2019-03-12T02:32:02.765Z,78.23
2019-03-12T02:33:02.785Z,77.89
2019-03-12T02:34:02.749Z,77.92
2019-03-12T02:35:02.733Z,77.99
2019-03-12T02:36:02.723Z,77.16
2019-03-12T02:37:02.718Z,76.54
2019-03-12T02:38:02.729Z,76.85
2019-03-12T02:39:02.688Z,76.75
2019-03-12T02:40:02.678Z,76.43
2019-03-12T02:41:02.664Z,76.33
2019-03-12T02:42:02.676Z,77.89
2019-03-12T02:43:02.671Z,77.89
2019-03-12T02:44:02.632Z,78.51
2019-03-12T02:45:02.642Z,77.99
2019-03-12T02:46:02.610Z,77.99
2019-03-12T02:47:02.616Z,77.82
2019-03-12T02:48:02.612Z,78.30
2019-03-12T02:49:02.580Z,78.13
2019-03-12T02:50:02.566Z,78.34
2019-03-12T02:51:02.561Z,78.96
2019-03-12T02:52:02.541Z,78.23
2019-03-12T02:53:02.696Z,78.34
2019-03-12T02:54:02.520Z,78.48
2019-03-12T02:55:02.512Z,78.44
2019-03-12T02:56:02.506Z,79.10
2019-03-12T02:57:02.496Z,78.58
2019-03-12T02:58:02.503Z,78.69
2019-03-12T02:59:02.479Z,79.41
2019-03-12T03:00:02.454Z,80.25
2019-03-12T03:01:02.441Z,79.72
2019-03-12T03:02:02.432Z,79.21
2019-03-12T03:03:02.449Z,78.89
2019-03-12T03:04:02.415Z,78.79
2019-03-12T03:05:02.395Z,78.93
2019-03-12T03:06:02.386Z,79.10
2019-03-12T03:07:02.376Z,79.62
2019-03-12T03:08:02.405Z,78.48
2019-03-12T03:09:02.353Z,79.00
2019-03-12T03:10:02.341Z,79.10
2019-03-12T03:11:02.330Z,78.69
2019-03-12T03:12:02.320Z,78.48
2019-03-12T03:13:02.311Z,78.10
2019-03-12T03:14:02.333Z,78.06
2019-03-12T03:15:02.284Z,78.06
2019-03-12T03:16:02.271Z,77.86
2019-03-12T03:17:02.277Z,76.82
2019-03-12T03:18:02.254Z,76.72
2019-03-12T03:19:02.281Z,76.61
2019-03-12T03:20:02.246Z,76.09
2019-03-12T03:21:02.241Z,76.16
2019-03-12T03:22:02.207Z,76.19
2019-03-12T03:23:02.194Z,75.32
2019-03-12T03:24:02.213Z,75.54
2019-03-12T03:25:02.175Z,75.43
2019-03-12T03:26:02.160Z,75.64
2019-03-12T03:27:02.162Z,75.54
2019-03-12T03:28:02.142Z,74.39
2019-03-12T03:29:02.168Z,75.60
2019-03-12T03:30:02.117Z,75.22
2019-03-12T03:31:02.111Z,74.26
2019-03-12T03:32:02.104Z,75.40
2019-03-12T03:33:02.089Z,74.67
2019-03-12T03:34:02.097Z,74.05
2019-03-12T03:35:02.066Z,74.88
2019-03-12T03:36:02.052Z,73.84
2019-03-12T03:37:02.039Z,75.19
2019-03-12T03:38:02.035Z,74.46
2019-03-12T03:39:02.040Z,74.36
2019-03-12T03:40:02.007Z,75.40
2019-03-12T03:41:01.992Z,75.19
2019-03-12T03:42:01.994Z,75.09
2019-03-12T03:43:01.980Z,75.60
2019-03-12T03:44:01.982Z,75.92
2019-03-12T03:45:01.955Z,75.92
2019-03-12T03:46:02.027Z,76.02
2019-03-12T03:47:01.926Z,76.33
2019-03-12T03:48:01.916Z,76.75
2019-03-12T03:49:01.933Z,76.75
2019-03-12T03:50:01.911Z,76.95
2019-03-12T03:51:01.881Z,76.64
2019-03-12T03:52:01.879Z,76.64
2019-03-12T03:53:01.886Z,76.54
2019-03-12T03:54:01.876Z,76.23
2019-03-12T03:55:01.839Z,77.16
2019-03-12T03:56:01.825Z,76.54
2019-03-12T03:57:01.812Z,76.75
2019-03-12T03:58:01.807Z,77.06
2019-03-12T03:59:01.815Z,77.99
2019-03-12T04:00:01.780Z,78.06
2019-03-12T04:01:01.771Z,77.89
2019-03-12T04:02:01.757Z,78.20
2019-03-12T04:03:01.753Z,77.89
2019-03-12T04:04:01.740Z,77.95
2019-03-12T04:05:01.747Z,78.20
2019-03-12T04:06:01.720Z,78.61
2019-03-12T04:07:01.721Z,78.51
2019-03-12T04:08:01.693Z,78.41
2019-03-12T04:09:01.679Z,78.37
2019-03-12T04:10:01.773Z,78.51
2019-03-12T04:11:01.662Z,78.58
2019-03-12T04:12:01.648Z,79.03
2019-03-12T04:13:01.641Z,78.89
2019-03-12T04:14:01.624Z,77.68
2019-03-12T04:15:01.643Z,78.30
2019-03-12T04:16:01.658Z,78.41
2019-03-12T04:17:01.589Z,78.09
2019-03-12T04:18:01.577Z,77.68
2019-03-12T04:19:01.568Z,78.61
2019-03-12T04:20:01.585Z,78.78
2019-03-12T04:21:01.547Z,78.41
2019-03-12T04:22:01.543Z,78.72
2019-03-12T04:23:01.522Z,78.82
2019-03-12T04:24:01.511Z,78.89
2019-03-12T04:25:01.535Z,77.68
2019-03-12T04:26:01.489Z,78.06
2019-03-12T04:27:01.477Z,77.99
2019-03-12T04:28:01.470Z,77.85
2019-03-12T04:29:01.460Z,78.30
2019-03-12T04:30:01.469Z,78.09
2019-03-12T04:31:01.433Z,77.99
2019-03-12T04:32:01.421Z,77.89
2019-03-12T04:33:01.415Z,78.06
2019-03-12T04:34:01.402Z,77.99
2019-03-12T04:35:01.439Z,77.89
2019-03-12T04:36:01.376Z,77.89
2019-03-12T04:37:01.371Z,77.99
2019-03-12T04:38:01.352Z,78.09
2019-03-12T04:39:01.339Z,78.09
2019-03-12T04:40:01.360Z,78.16
2019-03-12T04:41:01.318Z,78.51
2019-03-12T04:42:01.313Z,77.78
2019-03-12T04:43:01.295Z,77.26
2019-03-12T04:44:01.285Z,77.72
2019-03-12T04:45:01.299Z,77.58
2019-03-12T04:46:01.272Z,77.78
2019-03-12T04:47:01.253Z,78.03
2019-03-12T04:48:01.240Z,77.72
2019-03-12T04:49:01.228Z,78.03
2019-03-12T04:50:01.241Z,78.75
2019-03-12T04:51:01.217Z,78.13
2019-03-12T04:52:01.194Z,78.55
2019-03-12T04:53:01.182Z,79.38
2019-03-12T04:54:01.175Z,79.58
2019-03-12T04:55:01.187Z,80.11
2019-03-12T04:56:01.154Z,78.92
2019-03-12T04:57:01.139Z,79.97
2019-03-12T04:58:01.129Z,80.21
2019-03-12T04:59:01.118Z,80.00
2019-03-12T05:00:01.110Z,79.58
2019-03-12T05:01:01.124Z,79.34
2019-03-12T05:02:01.083Z,79.24
2019-03-12T05:03:01.074Z,78.75
2019-03-12T05:04:01.061Z,78.55
2019-03-12T05:05:01.053Z,79.80
2019-03-12T05:06:01.060Z,79.44
2019-03-12T05:07:01.027Z,79.38
2019-03-12T05:08:01.029Z,79.27
2019-03-12T05:09:01.004Z,79.80
2019-03-12T05:10:00.992Z,79.80
2019-03-12T05:11:01.011Z,79.48
2019-03-12T05:12:00.976Z,78.72
2019-03-12T05:13:00.962Z,79.34
2019-03-12T05:14:00.948Z,79.24
2019-03-12T05:15:00.936Z,79.44
2019-03-12T05:16:00.952Z,78.72
2019-03-12T05:17:00.919Z,78.72
2019-03-12T05:18:00.903Z,79.13
2019-03-12T05:19:00.892Z,79.55
2019-03-12T05:20:00.879Z,78.75
2019-03-12T05:21:00.892Z,80.00
2019-03-12T05:22:00.859Z,79.90
2019-03-12T05:23:00.851Z,79.97
2019-03-12T05:24:00.838Z,80.21
2019-03-12T05:25:00.828Z,80.49
2019-03-12T05:26:00.838Z,79.55
2019-03-12T05:27:00.803Z,78.55
2019-03-12T05:28:00.836Z,79.58
2019-03-12T05:29:00.783Z,80.11
2019-03-12T05:30:00.769Z,79.03
2019-03-12T05:31:00.785Z,79.69
2019-03-12T05:32:00.746Z,78.82
2019-03-12T05:33:00.735Z,79.24
2019-03-12T05:34:00.722Z,79.55
2019-03-12T05:35:00.717Z,79.76
2019-03-12T05:36:00.727Z,79.24
2019-03-12T05:37:00.740Z,79.34
2019-03-12T05:38:00.691Z,79.76
2019-03-12T05:39:00.667Z,80.18
2019-03-12T05:40:00.658Z,79.97
2019-03-12T05:41:00.671Z,79.86
2019-03-12T05:42:00.634Z,80.07
2019-03-12T05:43:00.639Z,79.44
2019-03-12T05:44:00.612Z,79.97
2019-03-12T05:45:00.619Z,80.28
2019-03-12T05:46:00.615Z,80.07
2019-03-12T05:47:00.578Z,79.76
2019-03-12T05:48:00.569Z,79.41
2019-03-12T05:49:00.555Z,79.44
2019-03-12T05:50:00.546Z,79.83
2019-03-12T05:51:00.534Z,79.86
2019-03-12T05:52:00.553Z,79.72
2019-03-12T05:53:00.510Z,80.14
2019-03-12T05:54:00.515Z,79.61
2019-03-12T05:55:00.491Z,79.44
2019-03-12T05:56:00.478Z,79.13
2019-03-12T05:57:00.495Z,80.45
2019-03-12T05:58:00.455Z,80.76
2019-03-12T05:59:00.452Z,80.45
2019-03-12T06:00:00.535Z,79.83
2019-03-12T06:01:00.420Z,79.93
2019-03-12T06:02:00.441Z,79.83
2019-03-12T06:03:00.398Z,80.45
2019-03-12T06:04:00.388Z,79.41
2019-03-12T06:05:00.440Z,79.30
2019-03-12T06:06:00.368Z,78.99
2019-03-12T06:07:00.392Z,79.61
2019-03-12T06:08:00.343Z,80.14
2019-03-12T06:09:00.332Z,79.72
2019-03-12T06:10:00.417Z,80.35
2019-03-12T06:11:00.316Z,80.73
2019-03-12T06:12:00.323Z,80.76
2019-03-12T06:13:00.285Z,80.10
2019-03-12T06:14:00.275Z,80.31
2019-03-12T06:15:00.406Z,80.10
2019-03-12T06:16:00.252Z,80.52
2019-03-12T06:17:00.270Z,79.79
2019-03-12T06:18:00.232Z,80.62
2019-03-12T06:19:00.220Z,79.79
2019-03-12T06:20:00.363Z,79.34
2019-03-12T06:21:00.201Z,79.69
2019-03-12T06:22:00.211Z,79.38
2019-03-12T06:23:00.173Z,79.17
2019-03-12T06:24:00.162Z,79.27
2019-03-12T06:25:00.382Z,79.38
2019-03-12T06:26:00.144Z,79.03
2019-03-12T06:27:00.153Z,79.17
2019-03-12T06:28:00.120Z,79.24
2019-03-12T06:29:00.108Z,79.48
2019-03-12T06:30:00.096Z,78.51
2019-03-12T06:31:00.085Z,78.55
2019-03-12T06:32:00.100Z,78.55
2019-03-12T06:33:00.068Z,79.17
2019-03-12T06:34:00.052Z,79.48
2019-03-12T06:35:00.039Z,79.38
2019-03-12T06:36:00.029Z,79.44
2019-03-12T06:37:00.019Z,78.82
2019-03-12T06:38:00.028Z,78.75
2019-03-12T06:38:59.993Z,78.34
2019-03-12T06:39:59.989Z,77.72
2019-03-12T06:40:59.972Z,77.92
2019-03-12T06:41:59.962Z,78.55
2019-03-12T06:42:59.978Z,78.51
2019-03-12T06:43:59.936Z,78.75
2019-03-12T06:44:59.927Z,78.41
2019-03-12T06:45:59.915Z,78.41
2019-03-12T06:46:59.906Z,78.13
2019-03-12T06:47:59.920Z,78.92
2019-03-12T06:48:59.883Z,79.13
2019-03-12T06:49:59.876Z,78.41
2019-03-12T06:50:59.859Z,78.41
2019-03-12T06:51:59.848Z,78.09
2019-03-12T06:52:59.863Z,78.30
2019-03-12T06:53:59.829Z,78.41
2019-03-12T06:54:59.817Z,78.30
2019-03-12T06:55:59.803Z,78.68
2019-03-12T06:56:59.795Z,77.95
2019-03-12T06:57:59.815Z,78.16
2019-03-12T06:58:59.771Z,78.16
2019-03-12T06:59:59.765Z,77.75
2019-03-12T07:00:59.749Z,77.75
2019-03-12T07:01:59.742Z,77.71
2019-03-12T07:02:59.751Z,78.06
2019-03-12T07:03:59.714Z,78.02
2019-03-12T07:04:59.704Z,78.06
2019-03-12T07:05:59.698Z,77.81
2019-03-12T07:07:01.152Z,77.40
2019-03-12T07:07:59.700Z,77.61
2019-03-12T07:08:59.667Z,77.81
2019-03-12T07:09:59.651Z,77.50
2019-03-12T07:10:59.641Z,77.50
2019-03-12T07:11:59.635Z,77.50
2019-03-12T07:12:59.642Z,77.57
2019-03-12T07:13:59.605Z,77.57
2019-03-12T07:14:59.594Z,77.47
2019-03-12T07:15:59.606Z,76.84
2019-03-12T07:16:59.569Z,76.53
2019-03-12T07:17:59.585Z,77.26
2019-03-12T07:18:59.555Z,75.92
2019-03-12T07:19:59.538Z,76.74
2019-03-12T07:20:59.525Z,76.43
2019-03-12T07:21:59.520Z,76.50
2019-03-12T07:22:59.529Z,76.19
2019-03-12T07:23:59.494Z,76.84
2019-03-12T07:24:59.483Z,76.61
2019-03-12T07:25:59.472Z,77.33
2019-03-12T07:26:59.460Z,76.40
2019-03-12T07:27:59.479Z,76.09
2019-03-12T07:28:59.437Z,76.29
2019-03-12T07:29:59.428Z,76.29
2019-03-12T07:30:59.420Z,76.26
2019-03-12T07:31:59.407Z,75.84
2019-03-12T07:32:59.422Z,75.84
2019-03-12T07:33:59.384Z,75.88
2019-03-12T07:34:59.372Z,75.84
2019-03-12T07:35:59.360Z,75.95
2019-03-12T07:36:59.349Z,75.84
2019-03-12T07:37:59.339Z,76.05
2019-03-12T07:38:59.355Z,76.05
2019-03-12T07:39:59.320Z,75.70
2019-03-12T07:40:59.312Z,75.91
2019-03-12T07:41:59.294Z,75.40
2019-03-12T07:42:59.282Z,75.81
2019-03-12T07:43:59.298Z,75.70
2019-03-12T07:44:59.330Z,75.74
2019-03-12T07:45:59.255Z,76.12
2019-03-12T07:46:59.242Z,75.91
2019-03-12T07:47:59.233Z,75.70
2019-03-12T07:48:59.240Z,75.50
2019-03-12T07:49:59.208Z,75.60
2019-03-12T07:50:59.194Z,74.05
2019-03-12T07:51:59.182Z,74.98
2019-03-12T07:52:59.173Z,73.71
2019-03-12T07:54:00.014Z,72.98
2019-03-12T07:54:59.146Z,74.02
2019-03-12T07:55:59.136Z,73.81
2019-03-12T07:56:59.123Z,73.91
2019-03-12T07:57:59.112Z,73.26
2019-03-12T07:58:59.131Z,73.26
2019-03-12T07:59:59.095Z,73.77
2019-03-12T08:00:59.078Z,73.05
2019-03-12T08:01:59.068Z,73.88
2019-03-12T08:02:59.053Z,73.67
2019-03-12T08:03:59.345Z,72.33
2019-03-12T08:04:59.037Z,72.09
2019-03-12T08:05:59.021Z,72.30
2019-03-12T08:06:59.008Z,71.57
2019-03-12T08:07:59.014Z,71.37
2019-03-12T08:08:59.012Z,70.61
2019-03-12T08:10:01.201Z,70.40
2019-03-12T08:10:58.965Z,70.09
2019-03-12T08:11:58.957Z,69.75
2019-03-12T08:12:58.948Z,69.75
2019-03-12T08:13:58.952Z,69.85
2019-03-12T08:14:58.918Z,68.62
2019-03-12T08:15:58.907Z,67.45
2019-03-12T08:16:58.895Z,67.45
2019-03-12T08:17:58.888Z,68.17
2019-03-12T08:18:58.873Z,67.97
2019-03-12T08:19:58.888Z,68.59
2019-03-12T08:20:58.848Z,67.52
2019-03-12T08:21:58.852Z,67.73
2019-03-12T08:22:58.824Z,66.91
2019-03-12T08:23:58.815Z,66.70
2019-03-12T08:24:58.829Z,67.00
2019-03-12T08:25:58.815Z,66.39
2019-03-12T08:26:58.779Z,66.08
2019-03-12T08:27:58.766Z,66.18
2019-03-12T08:28:58.763Z,65.98
2019-03-12T08:29:58.774Z,66.60
2019-03-12T08:30:58.731Z,66.70
2019-03-12T08:31:58.729Z,67.42
2019-03-12T08:32:58.719Z,66.60
2019-03-12T08:33:58.700Z,66.39
2019-03-12T08:34:58.713Z,66.39
2019-03-12T08:35:58.674Z,64.64
2019-03-12T08:36:58.662Z,64.81
2019-03-12T08:37:58.657Z,65.02
2019-03-12T08:38:58.640Z,64.64
2019-03-12T08:39:58.653Z,66.28
2019-03-12T08:40:58.628Z,66.25
2019-03-12T08:41:58.606Z,64.50
2019-03-12T08:42:58.594Z,64.71
2019-03-12T08:43:58.585Z,64.61
2019-03-12T08:44:59.096Z,65.84
2019-03-12T08:45:58.563Z,65.61
2019-03-12T08:46:58.556Z,64.68
2019-03-12T08:47:58.540Z,64.47
2019-03-12T08:48:58.543Z,64.58
2019-03-12T08:49:58.582Z,64.27
2019-03-12T08:50:58.504Z,64.17
2019-03-12T08:51:58.495Z,64.58
2019-03-12T08:52:58.485Z,64.78
2019-03-12T08:53:58.472Z,63.85
2019-03-12T08:54:58.484Z,64.14
2019-03-12T08:55:58.445Z,64.65
2019-03-12T08:56:58.443Z,63.54
2019-03-12T08:57:58.425Z,63.93
2019-03-12T08:58:58.418Z,64.34
2019-03-12T08:59:58.426Z,63.31
2019-03-12T09:00:58.391Z,63.62
2019-03-12T09:01:58.381Z,62.70
2019-03-12T09:02:58.371Z,62.07
2019-03-12T09:03:58.356Z,62.28
2019-03-12T09:04:58.370Z,62.31
2019-03-12T09:05:58.334Z,64.03
2019-03-12T09:06:58.324Z,62.38
2019-03-12T09:07:58.317Z,62.49
2019-03-12T09:08:58.302Z,63.07
2019-03-12T09:09:58.314Z,61.15
2019-03-12T09:10:58.278Z,61.12
2019-03-12T09:11:58.270Z,62.15
2019-03-12T09:12:58.267Z,61.30
2019-03-12T09:13:58.246Z,61.94
2019-03-12T09:14:58.236Z,62.95
2019-03-12T09:15:58.248Z,62.74
2019-03-12T09:16:58.215Z,60.47
2019-03-12T09:17:58.202Z,60.78
2019-03-12T09:19:01.072Z,60.50
2019-03-12T09:19:58.188Z,59.75
2019-03-12T09:20:58.191Z,60.27
2019-03-12T09:21:58.154Z,59.75
2019-03-12T09:22:58.144Z,59.65
2019-03-12T09:23:58.133Z,59.83
2019-03-12T09:24:58.157Z,59.52
2019-03-12T09:25:58.109Z,60.45
2019-03-12T09:26:58.098Z,57.98
2019-03-12T09:27:58.092Z,60.35
2019-03-12T09:28:58.079Z,59.52
2019-03-12T09:29:58.066Z,58.50
2019-03-12T09:30:58.078Z,58.91
2019-03-12T09:31:58.051Z,58.70
2019-03-12T09:32:58.035Z,58.16
2019-03-12T09:33:58.020Z,58.36
2019-03-12T09:34:58.010Z,59.70
2019-03-12T09:35:58.021Z,58.78
2019-03-12T09:36:57.987Z,58.26
2019-03-12T09:37:57.983Z,58.13
2019-03-12T09:38:57.982Z,58.34
2019-03-12T09:39:57.950Z,58.13
2019-03-12T09:40:57.974Z,58.13
2019-03-12T09:41:57.929Z,58.62
2019-03-12T09:42:57.917Z,58.92
2019-03-12T09:43:57.912Z,57.28
2019-03-12T09:44:57.895Z,57.79
2019-03-12T09:45:57.913Z,57.18
2019-03-12T09:46:57.875Z,56.87
2019-03-12T09:47:57.861Z,57.59
2019-03-12T09:48:57.853Z,56.05
2019-03-12T09:49:57.837Z,57.39
2019-03-12T09:50:57.857Z,55.74
2019-03-12T09:51:57.817Z,56.95
2019-03-12T09:52:57.810Z,56.02
2019-03-12T09:53:57.795Z,56.13
2019-03-12T09:54:57.805Z,56.02
2019-03-12T09:55:57.796Z,56.43
2019-03-12T09:56:57.765Z,55.69
2019-03-12T09:57:57.754Z,55.72
2019-03-12T09:58:57.740Z,55.38
2019-03-12T09:59:57.858Z,55.79
2019-03-12T10:00:57.745Z,54.38
2019-03-12T10:01:59.509Z,55.28
2019-03-12T10:02:57.698Z,54.18
2019-03-12T10:03:57.699Z,55.59
2019-03-12T10:04:57.675Z,53.64
2019-03-12T10:05:57.687Z,54.66
2019-03-12T10:06:57.648Z,55.18
2019-03-12T10:07:57.635Z,54.36
2019-03-12T10:08:57.627Z,54.15
2019-03-12T10:09:57.626Z,54.05
2019-03-12T10:10:57.629Z,54.46
2019-03-12T10:11:57.596Z,54.97
2019-03-12T10:12:57.585Z,52.82
2019-03-12T10:13:57.570Z,53.77
2019-03-12T10:14:57.593Z,53.66
2019-03-12T10:15:57.579Z,52.46
2019-03-12T10:16:57.539Z,54.10
2019-03-12T10:17:57.525Z,53.49
2019-03-12T10:18:57.517Z,54.41
2019-03-12T10:19:57.499Z,54.00
2019-03-12T10:20:57.523Z,54.10
2019-03-12T10:21:57.482Z,53.49
2019-03-12T10:22:57.466Z,54.61
2019-03-12T10:23:57.455Z,54.41
2019-03-12T10:24:57.475Z,54.30
2019-03-12T10:25:57.434Z,52.87
2019-03-12T10:26:57.449Z,53.49
2019-03-12T10:27:57.408Z,53.59
2019-03-12T10:28:57.404Z,53.81
2019-03-12T10:29:57.386Z,54.10
2019-03-12T10:30:57.378Z,54.72
2019-03-12T10:31:57.390Z,53.59
2019-03-12T10:32:57.358Z,53.89
2019-03-12T10:33:57.341Z,52.69
2019-03-12T10:34:57.333Z,53.00
2019-03-12T10:35:57.426Z,53.69
2019-03-12T10:37:10.861Z,54.74
2019-03-12T10:37:58.295Z,53.38
2019-03-12T10:38:57.285Z,54.51
2019-03-12T10:39:57.281Z,53.69
2019-03-12T10:40:57.262Z,54.33
2019-03-12T10:41:57.277Z,53.61
2019-03-12T10:42:57.240Z,52.48
2019-03-12T10:43:57.269Z,52.56
2019-03-12T10:44:57.220Z,52.25
2019-03-12T10:45:57.214Z,52.87
2019-03-12T10:46:57.222Z,53.69
2019-03-12T10:47:57.183Z,52.46
2019-03-12T10:48:57.171Z,52.97
2019-03-12T10:49:57.162Z,52.36
2019-03-12T10:50:57.151Z,52.15
2019-03-12T10:51:57.161Z,53.38
2019-03-12T10:52:57.130Z,53.36
2019-03-12T10:53:57.129Z,54.08
2019-03-12T10:54:57.110Z,52.61
2019-03-12T10:55:57.096Z,51.92
2019-03-12T10:56:57.113Z,52.23
2019-03-12T10:57:57.073Z,52.82
2019-03-12T10:58:57.060Z,52.31
2019-03-12T10:59:57.051Z,51.28
2019-03-12T11:00:57.036Z,51.90
2019-03-12T11:01:57.060Z,51.20
2019-03-12T11:02:57.021Z,51.59
2019-03-12T11:03:57.005Z,52.44
2019-03-12T11:04:56.992Z,53.44
2019-03-12T11:05:56.981Z,51.82
2019-03-12T11:06:56.969Z,51.69
2019-03-12T11:07:57.018Z,53.12
2019-03-12T11:08:56.952Z,52.41
2019-03-12T11:09:56.940Z,51.36
2019-03-12T11:10:56.928Z,49.90
2019-03-12T11:11:56.920Z,50.93
2019-03-12T11:12:56.925Z,49.59
2019-03-12T11:13:56.891Z,49.29
2019-03-12T11:14:56.882Z,48.98
2019-03-12T11:15:56.869Z,49.10
2019-03-12T11:16:56.857Z,48.90
2019-03-12T11:17:56.870Z,49.41
2019-03-12T11:18:56.841Z,50.31
2019-03-12T11:19:56.828Z,48.90
2019-03-12T11:20:58.803Z,50.95
2019-03-12T11:21:56.801Z,50.13
2019-03-12T11:22:56.812Z,49.10
2019-03-12T11:23:56.776Z,49.93
2019-03-12T11:24:56.764Z,50.31
2019-03-12T11:25:56.755Z,48.67
2019-03-12T11:26:56.744Z,50.21
2019-03-12T11:27:56.761Z,49.59
2019-03-12T11:28:56.720Z,48.67
2019-03-12T11:29:56.709Z,49.29
2019-03-12T11:30:56.698Z,48.57
2019-03-12T11:31:56.684Z,48.75
2019-03-12T11:32:56.700Z,48.98
2019-03-12T11:33:56.670Z,49.67
2019-03-12T11:34:56.651Z,48.85
2019-03-12T11:35:56.691Z,49.06
2019-03-12T11:36:56.630Z,49.29
2019-03-12T11:37:56.622Z,49.08
2019-03-12T11:38:56.649Z,50.29
2019-03-12T11:39:56.597Z,50.80
2019-03-12T11:40:56.584Z,48.85
2019-03-12T11:41:56.581Z,49.88
2019-03-12T11:42:56.579Z,50.09
2019-03-12T11:43:56.582Z,49.96
2019-03-12T11:44:56.538Z,49.37
2019-03-12T11:45:56.527Z,49.16
2019-03-12T11:46:56.517Z,48.85
2019-03-12T11:47:56.513Z,49.16
2019-03-12T11:48:56.547Z,49.57
2019-03-12T11:49:56.483Z,48.65
2019-03-12T11:50:56.473Z,48.85
2019-03-12T11:51:56.487Z,49.55
2019-03-12T11:52:58.847Z,49.65
2019-03-12T11:53:56.488Z,50.06
2019-03-12T11:54:56.442Z,48.60
2019-03-12T11:55:56.430Z,50.34
2019-03-12T11:56:56.404Z,50.04
2019-03-12T11:57:56.391Z,49.52
2019-03-12T11:58:56.435Z,49.60
2019-03-12T11:59:56.385Z,49.40
2019-03-12T12:00:56.413Z,47.76
2019-03-12T12:01:56.346Z,47.76
2019-03-12T12:03:00.422Z,48.38
2019-03-12T12:03:56.352Z,47.66
2019-03-12T12:04:56.315Z,48.17
2019-03-12T12:05:56.302Z,47.97
2019-03-12T12:06:56.299Z,48.15
2019-03-12T12:07:56.328Z,47.74
2019-03-12T12:08:56.317Z,48.64
2019-03-12T12:09:56.259Z,46.41
2019-03-12T12:10:56.243Z,46.59
2019-03-12T12:11:56.243Z,44.67
2019-03-12T12:12:56.237Z,44.98
2019-03-12T12:13:56.250Z,45.57
2019-03-12T12:14:56.201Z,45.88
2019-03-12T12:15:56.214Z,46.37
2019-03-12T12:16:56.177Z,46.37
2019-03-12T12:17:56.170Z,47.80
2019-03-12T12:18:56.185Z,46.16
2019-03-12T12:19:56.146Z,45.35
2019-03-12T12:20:56.131Z,44.53
2019-03-12T12:21:56.120Z,44.94
2019-03-12T12:22:56.109Z,46.47
2019-03-12T12:23:56.099Z,43.71
2019-03-12T12:24:56.116Z,43.71
2019-03-12T12:25:56.077Z,44.65
2019-03-12T12:26:56.068Z,45.37
2019-03-12T12:27:56.052Z,45.06
2019-03-12T12:28:56.087Z,46.29
2019-03-12T12:29:56.031Z,47.52
2019-03-12T12:30:56.019Z,47.20
2019-03-12T12:31:56.009Z,46.47
2019-03-12T12:32:56.075Z,45.37
2019-03-12T12:33:55.987Z,47.19
2019-03-12T12:34:55.999Z,44.76
2019-03-12T12:35:55.963Z,44.76
2019-03-12T12:36:55.950Z,44.76
2019-03-12T12:37:55.942Z,45.17
2019-03-12T12:38:55.931Z,46.19
2019-03-12T12:39:55.940Z,45.67
2019-03-12T12:40:55.907Z,45.17
2019-03-12T12:41:55.894Z,45.17
2019-03-12T12:42:55.891Z,45.39
2019-03-12T12:43:55.878Z,44.98
2019-03-12T12:44:55.884Z,46.11
2019-03-12T12:45:55.851Z,47.74
2019-03-12T12:46:55.841Z,47.53
2019-03-12T12:47:55.826Z,45.80
2019-03-12T12:48:55.818Z,46.51
2019-03-12T12:49:55.828Z,46.11
2019-03-12T12:51:03.103Z,46.11
2019-03-12T12:51:56.782Z,45.70